sensor_id;sensor_type;location;lat;lon;timestamp;P1;durP1;ratioP1;P2;durP2;ratioP2
25111;SDS011;13092;51.996;4.458;2023-08-08T00:02:03;43.15;;;39.00;;
25111;SDS011;13092;51.996;4.458;2023-08-08T00:04:33;45.63;;;41.13;;
25111;SDS011;13092;51.996;4.458;2023-08-08T00:07:02;45.38;;;41.22;;
25111;SDS011;13092;51.996;4.458;2023-08-08T00:09:33;44.63;;;40.47;;
25111;SDS011;13092;51.996;4.458;2023-08-08T00:12:02;44.88;;;40.67;;
25111;SDS011;13092;51.996;4.458;2023-08-08T00:14:31;45.50;;;40.67;;
25111;SDS011;13092;51.996;4.458;2023-08-08T00:16:59;44.97;;;40.28;;
25111;SDS011;13092;51.996;4.458;2023-08-08T00:19:28;45.33;;;40.95;;
25111;SDS011;13092;51.996;4.458;2023-08-08T00:21:57;44.15;;;40.15;;
25111;SDS011;13092;51.996;4.458;2023-08-08T00:24:26;44.13;;;40.17;;
25111;SDS011;13092;51.996;4.458;2023-08-08T00:26:54;44.85;;;40.63;;
25111;SDS011;13092;51.996;4.458;2023-08-08T00:29:22;44.35;;;40.58;;
25111;SDS011;13092;51.996;4.458;2023-08-08T00:31:51;42.83;;;39.40;;
25111;SDS011;13092;51.996;4.458;2023-08-08T00:34:19;41.53;;;38.33;;
25111;SDS011;13092;51.996;4.458;2023-08-08T00:36:47;38.28;;;35.30;;
25111;SDS011;13092;51.996;4.458;2023-08-08T00:39:17;35.40;;;32.90;;
25111;SDS011;13092;51.996;4.458;2023-08-08T00:41:45;34.33;;;31.83;;
25111;SDS011;13092;51.996;4.458;2023-08-08T00:44:13;32.58;;;30.38;;
25111;SDS011;13092;51.996;4.458;2023-08-08T00:46:43;33.70;;;31.38;;
25111;SDS011;13092;51.996;4.458;2023-08-08T00:49:12;33.67;;;31.27;;
25111;SDS011;13092;51.996;4.458;2023-08-08T00:51:40;33.38;;;30.95;;
25111;SDS011;13092;51.996;4.458;2023-08-08T00:54:08;32.72;;;30.52;;
25111;SDS011;13092;51.996;4.458;2023-08-08T00:56:40;33.50;;;31.23;;
25111;SDS011;13092;51.996;4.458;2023-08-08T00:59:08;34.13;;;31.83;;
25111;SDS011;13092;51.996;4.458;2023-08-08T01:01:39;31.95;;;29.85;;
25111;SDS011;13092;51.996;4.458;2023-08-08T01:04:08;32.47;;;30.20;;
25111;SDS011;13092;51.996;4.458;2023-08-08T01:06:39;33.08;;;30.73;;
25111;SDS011;13092;51.996;4.458;2023-08-08T01:09:15;33.47;;;30.98;;
25111;SDS011;13092;51.996;4.458;2023-08-08T01:11:50;32.35;;;29.95;;
25111;SDS011;13092;51.996;4.458;2023-08-08T01:14:20;33.05;;;30.75;;
25111;SDS011;13092;51.996;4.458;2023-08-08T01:16:52;34.28;;;31.80;;
25111;SDS011;13092;51.996;4.458;2023-08-08T01:19:27;34.67;;;32.13;;
25111;SDS011;13092;51.996;4.458;2023-08-08T01:21:57;33.95;;;31.60;;
25111;SDS011;13092;51.996;4.458;2023-08-08T01:24:29;35.58;;;33.08;;
25111;SDS011;13092;51.996;4.458;2023-08-08T01:27:03;35.15;;;32.80;;
25111;SDS011;13092;51.996;4.458;2023-08-08T01:29:33;34.72;;;32.33;;
25111;SDS011;13092;51.996;4.458;2023-08-08T01:32:02;34.30;;;32.00;;
25111;SDS011;13092;51.996;4.458;2023-08-08T01:34:33;34.30;;;32.10;;
25111;SDS011;13092;51.996;4.458;2023-08-08T01:37:02;32.72;;;30.52;;
25111;SDS011;13092;51.996;4.458;2023-08-08T01:39:39;33.42;;;30.98;;
25111;SDS011;13092;51.996;4.458;2023-08-08T01:42:09;32.95;;;30.65;;
25111;SDS011;13092;51.996;4.458;2023-08-08T01:44:39;34.00;;;31.60;;
25111;SDS011;13092;51.996;4.458;2023-08-08T01:47:09;32.92;;;30.63;;
25111;SDS011;13092;51.996;4.458;2023-08-08T01:49:37;32.45;;;30.25;;
25111;SDS011;13092;51.996;4.458;2023-08-08T01:52:06;32.72;;;30.52;;
25111;SDS011;13092;51.996;4.458;2023-08-08T01:54:34;32.53;;;30.42;;
25111;SDS011;13092;51.996;4.458;2023-08-08T01:57:04;32.75;;;30.55;;
25111;SDS011;13092;51.996;4.458;2023-08-08T01:59:32;32.60;;;30.30;;
25111;SDS011;13092;51.996;4.458;2023-08-08T02:02:00;32.10;;;29.80;;
25111;SDS011;13092;51.996;4.458;2023-08-08T02:04:29;30.63;;;28.73;;
25111;SDS011;13092;51.996;4.458;2023-08-08T02:06:59;31.88;;;29.77;;
25111;SDS011;13092;51.996;4.458;2023-08-08T02:09:28;30.75;;;28.75;;
25111;SDS011;13092;51.996;4.458;2023-08-08T02:11:56;30.08;;;28.17;;
25111;SDS011;13092;51.996;4.458;2023-08-08T02:14:26;28.33;;;26.48;;
25111;SDS011;13092;51.996;4.458;2023-08-08T02:16:54;29.10;;;27.13;;
25111;SDS011;13092;51.996;4.458;2023-08-08T02:19:22;29.27;;;27.23;;
25111;SDS011;13092;51.996;4.458;2023-08-08T02:21:51;30.58;;;28.55;;
25111;SDS011;13092;51.996;4.458;2023-08-08T02:24:19;31.45;;;29.35;;
25111;SDS011;13092;51.996;4.458;2023-08-08T02:26:47;31.52;;;29.30;;
25111;SDS011;13092;51.996;4.458;2023-08-08T02:29:15;32.80;;;30.45;;
25111;SDS011;13092;51.996;4.458;2023-08-08T02:31:45;31.48;;;29.48;;
25111;SDS011;13092;51.996;4.458;2023-08-08T02:34:16;33.78;;;31.10;;
25111;SDS011;13092;51.996;4.458;2023-08-08T02:36:49;32.20;;;30.17;;
25111;SDS011;13092;51.996;4.458;2023-08-08T02:39:20;32.50;;;30.48;;
25111;SDS011;13092;51.996;4.458;2023-08-08T02:41:50;31.67;;;29.42;;
25111;SDS011;13092;51.996;4.458;2023-08-08T02:44:18;29.92;;;27.90;;
25111;SDS011;13092;51.996;4.458;2023-08-08T02:46:50;28.15;;;26.40;;
25111;SDS011;13092;51.996;4.458;2023-08-08T02:49:18;27.02;;;25.17;;
25111;SDS011;13092;51.996;4.458;2023-08-08T02:51:46;26.05;;;24.42;;
25111;SDS011;13092;51.996;4.458;2023-08-08T02:54:16;27.08;;;25.38;;
25111;SDS011;13092;51.996;4.458;2023-08-08T02:56:44;26.58;;;24.85;;
25111;SDS011;13092;51.996;4.458;2023-08-08T02:59:12;25.05;;;23.45;;
25111;SDS011;13092;51.996;4.458;2023-08-08T03:01:43;25.05;;;23.50;;
25111;SDS011;13092;51.996;4.458;2023-08-08T03:04:13;26.42;;;24.45;;
25111;SDS011;13092;51.996;4.458;2023-08-08T03:06:41;24.52;;;23.02;;
25111;SDS011;13092;51.996;4.458;2023-08-08T03:09:09;23.83;;;22.23;;
25111;SDS011;13092;51.996;4.458;2023-08-08T03:11:37;24.27;;;22.77;;
25111;SDS011;13092;51.996;4.458;2023-08-08T03:14:07;25.20;;;23.45;;
25111;SDS011;13092;51.996;4.458;2023-08-08T03:16:36;27.08;;;25.05;;
25111;SDS011;13092;51.996;4.458;2023-08-08T03:19:04;26.45;;;24.58;;
25111;SDS011;13092;51.996;4.458;2023-08-08T03:21:34;27.42;;;25.73;;
25111;SDS011;13092;51.996;4.458;2023-08-08T03:24:02;28.13;;;26.13;;
25111;SDS011;13092;51.996;4.458;2023-08-08T03:26:31;27.65;;;25.95;;
25111;SDS011;13092;51.996;4.458;2023-08-08T03:28:59;24.98;;;23.35;;
25111;SDS011;13092;51.996;4.458;2023-08-08T03:31:30;20.17;;;18.70;;
25111;SDS011;13092;51.996;4.458;2023-08-08T03:34:01;19.63;;;18.33;;
25111;SDS011;13092;51.996;4.458;2023-08-08T03:36:29;20.83;;;19.52;;
25111;SDS011;13092;51.996;4.458;2023-08-08T03:38:59;21.08;;;19.67;;
25111;SDS011;13092;51.996;4.458;2023-08-08T03:41:28;20.33;;;19.02;;
25111;SDS011;13092;51.996;4.458;2023-08-08T03:43:59;21.17;;;19.77;;
25111;SDS011;13092;51.996;4.458;2023-08-08T03:46:29;23.80;;;22.40;;
25111;SDS011;13092;51.996;4.458;2023-08-08T03:48:57;24.67;;;23.10;;
25111;SDS011;13092;51.996;4.458;2023-08-08T03:51:26;28.58;;;26.67;;
25111;SDS011;13092;51.996;4.458;2023-08-08T03:53:58;30.13;;;28.13;;
25111;SDS011;13092;51.996;4.458;2023-08-08T03:56:27;29.95;;;28.13;;
25111;SDS011;13092;51.996;4.458;2023-08-08T03:58:58;29.42;;;27.52;;
25111;SDS011;13092;51.996;4.458;2023-08-08T04:01:29;28.00;;;26.20;;
25111;SDS011;13092;51.996;4.458;2023-08-08T04:03:58;28.52;;;26.60;;
25111;SDS011;13092;51.996;4.458;2023-08-08T04:06:26;29.20;;;27.33;;
25111;SDS011;13092;51.996;4.458;2023-08-08T04:08:55;29.77;;;27.98;;
25111;SDS011;13092;51.996;4.458;2023-08-08T04:11:24;30.60;;;28.58;;
25111;SDS011;13092;51.996;4.458;2023-08-08T04:13:53;28.63;;;26.92;;
25111;SDS011;13092;51.996;4.458;2023-08-08T04:16:21;29.48;;;27.77;;
25111;SDS011;13092;51.996;4.458;2023-08-08T04:18:52;28.75;;;26.83;;
25111;SDS011;13092;51.996;4.458;2023-08-08T04:21:20;30.65;;;28.65;;
25111;SDS011;13092;51.996;4.458;2023-08-08T04:23:52;30.13;;;28.23;;
25111;SDS011;13092;51.996;4.458;2023-08-08T04:26:21;30.83;;;28.90;;
25111;SDS011;13092;51.996;4.458;2023-08-08T04:28:50;32.22;;;30.13;;
25111;SDS011;13092;51.996;4.458;2023-08-08T04:31:19;32.67;;;30.58;;
25111;SDS011;13092;51.996;4.458;2023-08-08T04:33:50;32.63;;;30.48;;
25111;SDS011;13092;51.996;4.458;2023-08-08T04:36:21;31.02;;;29.23;;
25111;SDS011;13092;51.996;4.458;2023-08-08T04:38:53;32.30;;;30.40;;
25111;SDS011;13092;51.996;4.458;2023-08-08T04:41:21;30.50;;;28.40;;
25111;SDS011;13092;51.996;4.458;2023-08-08T04:43:51;30.35;;;28.45;;
25111;SDS011;13092;51.996;4.458;2023-08-08T04:46:21;32.13;;;30.23;;
25111;SDS011;13092;51.996;4.458;2023-08-08T04:48:49;31.23;;;29.23;;
25111;SDS011;13092;51.996;4.458;2023-08-08T04:51:18;29.65;;;27.75;;
25111;SDS011;13092;51.996;4.458;2023-08-08T04:53:46;28.70;;;26.77;;
25111;SDS011;13092;51.996;4.458;2023-08-08T04:56:17;29.67;;;27.75;;
25111;SDS011;13092;51.996;4.458;2023-08-08T04:58:45;30.05;;;28.25;;
25111;SDS011;13092;51.996;4.458;2023-08-08T05:01:17;31.52;;;29.60;;
25111;SDS011;13092;51.996;4.458;2023-08-08T05:03:47;31.67;;;29.67;;
25111;SDS011;13092;51.996;4.458;2023-08-08T05:06:21;34.30;;;32.20;;
25111;SDS011;13092;51.996;4.458;2023-08-08T05:08:51;34.97;;;32.65;;
25111;SDS011;13092;51.996;4.458;2023-08-08T05:11:23;36.20;;;33.80;;
25111;SDS011;13092;51.996;4.458;2023-08-08T05:13:52;36.17;;;34.08;;
25111;SDS011;13092;51.996;4.458;2023-08-08T05:16:22;35.55;;;33.45;;
25111;SDS011;13092;51.996;4.458;2023-08-08T05:18:51;36.92;;;34.58;;
25111;SDS011;13092;51.996;4.458;2023-08-08T05:21:19;34.33;;;32.22;;
25111;SDS011;13092;51.996;4.458;2023-08-08T05:23:51;33.20;;;31.00;;
25111;SDS011;13092;51.996;4.458;2023-08-08T05:26:19;29.88;;;28.05;;
25111;SDS011;13092;51.996;4.458;2023-08-08T05:28:47;29.42;;;27.70;;
25111;SDS011;13092;51.996;4.458;2023-08-08T05:31:16;29.20;;;27.30;;
25111;SDS011;13092;51.996;4.458;2023-08-08T05:33:45;27.98;;;26.17;;
25111;SDS011;13092;51.996;4.458;2023-08-08T05:36:17;27.17;;;25.58;;
25111;SDS011;13092;51.996;4.458;2023-08-08T05:38:45;29.67;;;27.42;;
25111;SDS011;13092;51.996;4.458;2023-08-08T05:41:14;25.48;;;23.95;;
25111;SDS011;13092;51.996;4.458;2023-08-08T05:43:44;22.77;;;21.38;;
25111;SDS011;13092;51.996;4.458;2023-08-08T05:46:12;19.65;;;17.95;;
25111;SDS011;13092;51.996;4.458;2023-08-08T05:48:41;21.23;;;19.65;;
25111;SDS011;13092;51.996;4.458;2023-08-08T05:51:12;19.95;;;18.48;;
25111;SDS011;13092;51.996;4.458;2023-08-08T05:53:41;20.30;;;18.83;;
25111;SDS011;13092;51.996;4.458;2023-08-08T05:56:09;20.73;;;19.42;;
25111;SDS011;13092;51.996;4.458;2023-08-08T05:58:37;20.00;;;18.73;;
25111;SDS011;13092;51.996;4.458;2023-08-08T06:01:08;23.35;;;21.95;;
25111;SDS011;13092;51.996;4.458;2023-08-08T06:03:38;24.17;;;22.58;;
25111;SDS011;13092;51.996;4.458;2023-08-08T06:06:07;22.15;;;20.75;;
25111;SDS011;13092;51.996;4.458;2023-08-08T06:08:37;22.27;;;20.70;;
25111;SDS011;13092;51.996;4.458;2023-08-08T06:11:05;23.05;;;21.70;;
25111;SDS011;13092;51.996;4.458;2023-08-08T06:13:33;24.02;;;22.35;;
25111;SDS011;13092;51.996;4.458;2023-08-08T06:16:02;21.63;;;20.23;;
25111;SDS011;13092;51.996;4.458;2023-08-08T06:18:33;20.80;;;19.45;;
25111;SDS011;13092;51.996;4.458;2023-08-08T06:21:02;22.60;;;21.20;;
25111;SDS011;13092;51.996;4.458;2023-08-08T06:23:30;25.15;;;23.35;;
25111;SDS011;13092;51.996;4.458;2023-08-08T06:26:00;23.00;;;21.50;;
25111;SDS011;13092;51.996;4.458;2023-08-08T06:28:34;24.02;;;22.60;;
25111;SDS011;13092;51.996;4.458;2023-08-08T06:31:02;23.13;;;21.73;;
25111;SDS011;13092;51.996;4.458;2023-08-08T06:33:33;21.95;;;20.55;;
25111;SDS011;13092;51.996;4.458;2023-08-08T06:36:05;19.73;;;18.33;;
25111;SDS011;13092;51.996;4.458;2023-08-08T06:38:33;19.88;;;18.65;;
25111;SDS011;13092;51.996;4.458;2023-08-08T06:41:06;17.38;;;16.02;;
25111;SDS011;13092;51.996;4.458;2023-08-08T06:43:34;17.27;;;16.08;;
25111;SDS011;13092;51.996;4.458;2023-08-08T06:46:04;16.92;;;14.93;;
25111;SDS011;13092;51.996;4.458;2023-08-08T06:48:33;17.92;;;16.77;;
25111;SDS011;13092;51.996;4.458;2023-08-08T06:51:01;16.27;;;15.13;;
25111;SDS011;13092;51.996;4.458;2023-08-08T06:53:33;15.63;;;14.48;;
25111;SDS011;13092;51.996;4.458;2023-08-08T06:56:04;12.07;;;11.18;;
25111;SDS011;13092;51.996;4.458;2023-08-08T06:59:04;10.52;;;9.82;;
25111;SDS011;13092;51.996;4.458;2023-08-08T07:01:38;11.15;;;10.25;;
25111;SDS011;13092;51.996;4.458;2023-08-08T07:04:07;13.23;;;11.60;;
25111;SDS011;13092;51.996;4.458;2023-08-08T07:06:35;16.45;;;14.98;;
25111;SDS011;13092;51.996;4.458;2023-08-08T07:09:05;15.18;;;13.88;;
25111;SDS011;13092;51.996;4.458;2023-08-08T07:11:38;13.60;;;12.60;;
25111;SDS011;13092;51.996;4.458;2023-08-08T07:14:06;13.07;;;12.15;;
25111;SDS011;13092;51.996;4.458;2023-08-08T07:16:34;11.27;;;10.55;;
25111;SDS011;13092;51.996;4.458;2023-08-08T07:19:04;12.38;;;11.38;;
25111;SDS011;13092;51.996;4.458;2023-08-08T07:21:34;7.30;;;6.70;;
25111;SDS011;13092;51.996;4.458;2023-08-08T07:24:04;7.10;;;6.40;;
25111;SDS011;13092;51.996;4.458;2023-08-08T07:26:32;9.27;;;8.63;;
25111;SDS011;13092;51.996;4.458;2023-08-08T07:29:03;9.60;;;8.80;;
25111;SDS011;13092;51.996;4.458;2023-08-08T07:31:32;12.60;;;9.30;;
25111;SDS011;13092;51.996;4.458;2023-08-08T07:34:00;5.03;;;4.65;;
25111;SDS011;13092;51.996;4.458;2023-08-08T07:36:29;4.85;;;4.35;;
25111;SDS011;13092;51.996;4.458;2023-08-08T07:38:57;5.50;;;5.10;;
25111;SDS011;13092;51.996;4.458;2023-08-08T07:41:26;4.63;;;3.72;;
25111;SDS011;13092;51.996;4.458;2023-08-08T07:43:58;5.72;;;5.13;;
25111;SDS011;13092;51.996;4.458;2023-08-08T07:46:28;7.38;;;6.78;;
25111;SDS011;13092;51.996;4.458;2023-08-08T07:48:57;5.60;;;5.18;;
25111;SDS011;13092;51.996;4.458;2023-08-08T07:51:29;3.95;;;3.50;;
25111;SDS011;13092;51.996;4.458;2023-08-08T07:53:58;3.05;;;2.65;;
25111;SDS011;13092;51.996;4.458;2023-08-08T07:56:27;5.40;;;2.75;;
25111;SDS011;13092;51.996;4.458;2023-08-08T07:58:55;2.90;;;2.58;;
25111;SDS011;13092;51.996;4.458;2023-08-08T08:01:23;3.45;;;2.05;;
25111;SDS011;13092;51.996;4.458;2023-08-08T08:03:55;4.20;;;3.78;;
25111;SDS011;13092;51.996;4.458;2023-08-08T08:06:23;4.25;;;3.03;;
25111;SDS011;13092;51.996;4.458;2023-08-08T08:08:52;3.40;;;2.50;;
25111;SDS011;13092;51.996;4.458;2023-08-08T08:11:23;3.03;;;2.80;;
25111;SDS011;13092;51.996;4.458;2023-08-08T08:13:52;3.60;;;2.80;;
25111;SDS011;13092;51.996;4.458;2023-08-08T08:16:20;4.60;;;2.70;;
25111;SDS011;13092;51.996;4.458;2023-08-08T08:18:49;4.50;;;2.03;;
25111;SDS011;13092;51.996;4.458;2023-08-08T08:21:20;14.80;;;2.30;;
25111;SDS011;13092;51.996;4.458;2023-08-08T08:23:52;2.70;;;2.03;;
25111;SDS011;13092;51.996;4.458;2023-08-08T08:26:20;3.42;;;1.80;;
25111;SDS011;13092;51.996;4.458;2023-08-08T08:28:49;1.75;;;1.50;;
25111;SDS011;13092;51.996;4.458;2023-08-08T08:31:18;2.58;;;1.23;;
25111;SDS011;13092;51.996;4.458;2023-08-08T08:33:47;1.23;;;1.13;;
25111;SDS011;13092;51.996;4.458;2023-08-08T08:36:22;1.33;;;1.23;;
25111;SDS011;13092;51.996;4.458;2023-08-08T08:38:52;3.42;;;1.23;;
25111;SDS011;13092;51.996;4.458;2023-08-08T08:41:22;1.63;;;1.17;;
25111;SDS011;13092;51.996;4.458;2023-08-08T08:43:54;2.63;;;1.27;;
25111;SDS011;13092;51.996;4.458;2023-08-08T08:46:22;2.35;;;1.65;;
25111;SDS011;13092;51.996;4.458;2023-08-08T08:48:54;2.03;;;1.50;;
25111;SDS011;13092;51.996;4.458;2023-08-08T08:51:25;1.30;;;1.20;;
25111;SDS011;13092;51.996;4.458;2023-08-08T08:53:53;1.30;;;1.20;;
25111;SDS011;13092;51.996;4.458;2023-08-08T08:56:22;1.58;;;1.38;;
25111;SDS011;13092;51.996;4.458;2023-08-08T08:58:50;2.33;;;1.20;;
25111;SDS011;13092;51.996;4.458;2023-08-08T09:01:19;3.40;;;1.10;;
25111;SDS011;13092;51.996;4.458;2023-08-08T09:03:49;2.95;;;1.15;;
25111;SDS011;13092;51.996;4.458;2023-08-08T09:06:17;1.73;;;1.15;;
25111;SDS011;13092;51.996;4.458;2023-08-08T09:08:48;1.20;;;1.10;;
25111;SDS011;13092;51.996;4.458;2023-08-08T09:11:22;1.73;;;1.08;;
25111;SDS011;13092;51.996;4.458;2023-08-08T09:13:51;0.98;;;0.90;;
25111;SDS011;13092;51.996;4.458;2023-08-08T09:16:21;1.45;;;0.98;;
25111;SDS011;13092;51.996;4.458;2023-08-08T09:18:51;3.55;;;1.02;;
25111;SDS011;13092;51.996;4.458;2023-08-08T09:21:20;3.17;;;1.20;;
25111;SDS011;13092;51.996;4.458;2023-08-08T09:23:50;1.95;;;1.15;;
25111;SDS011;13092;51.996;4.458;2023-08-08T09:26:18;1.60;;;0.90;;
25111;SDS011;13092;51.996;4.458;2023-08-08T09:28:47;2.75;;;1.10;;
25111;SDS011;13092;51.996;4.458;2023-08-08T09:31:15;2.38;;;1.10;;
25111;SDS011;13092;51.996;4.458;2023-08-08T09:33:44;3.05;;;1.27;;
25111;SDS011;13092;51.996;4.458;2023-08-08T09:36:15;3.33;;;1.25;;
25111;SDS011;13092;51.996;4.458;2023-08-08T09:38:44;5.97;;;1.30;;
25111;SDS011;13092;51.996;4.458;2023-08-08T09:41:13;1.70;;;1.05;;
25111;SDS011;13092;51.996;4.458;2023-08-08T09:43:42;3.97;;;1.23;;
25111;SDS011;13092;51.996;4.458;2023-08-08T09:46:11;2.45;;;1.30;;
25111;SDS011;13092;51.996;4.458;2023-08-08T09:48:41;3.92;;;1.20;;
25111;SDS011;13092;51.996;4.458;2023-08-08T09:51:16;2.08;;;1.30;;
25111;SDS011;13092;51.996;4.458;2023-08-08T09:53:45;5.88;;;1.40;;
25111;SDS011;13092;51.996;4.458;2023-08-08T09:56:16;2.50;;;1.27;;
25111;SDS011;13092;51.996;4.458;2023-08-08T09:58:46;1.83;;;1.15;;
25111;SDS011;13092;51.996;4.458;2023-08-08T10:01:15;4.95;;;1.52;;
25111;SDS011;13092;51.996;4.458;2023-08-08T10:03:45;5.32;;;1.65;;
25111;SDS011;13092;51.996;4.458;2023-08-08T10:06:14;2.80;;;1.30;;
25111;SDS011;13092;51.996;4.458;2023-08-08T10:08:43;2.53;;;1.40;;
25111;SDS011;13092;51.996;4.458;2023-08-08T10:11:15;4.65;;;1.25;;
25111;SDS011;13092;51.996;4.458;2023-08-08T10:13:52;1.65;;;1.35;;
25111;SDS011;13092;51.996;4.458;2023-08-08T10:16:25;3.80;;;1.40;;
25111;SDS011;13092;51.996;4.458;2023-08-08T10:18:54;3.05;;;1.45;;
25111;SDS011;13092;51.996;4.458;2023-08-08T10:21:31;2.63;;;1.20;;
25111;SDS011;13092;51.996;4.458;2023-08-08T10:24:12;2.17;;;1.17;;
25111;SDS011;13092;51.996;4.458;2023-08-08T10:26:56;4.55;;;1.45;;
25111;SDS011;13092;51.996;4.458;2023-08-08T10:29:28;3.97;;;1.60;;
25111;SDS011;13092;51.996;4.458;2023-08-08T10:32:02;2.20;;;1.40;;
25111;SDS011;13092;51.996;4.458;2023-08-08T10:34:36;3.47;;;1.50;;
25111;SDS011;13092;51.996;4.458;2023-08-08T10:37:09;2.00;;;1.20;;
25111;SDS011;13092;51.996;4.458;2023-08-08T10:39:50;4.55;;;2.03;;
25111;SDS011;13092;51.996;4.458;2023-08-08T10:42:24;3.70;;;1.50;;
25111;SDS011;13092;51.996;4.458;2023-08-08T10:45:08;2.45;;;1.60;;
25111;SDS011;13092;51.996;4.458;2023-08-08T10:47:38;7.15;;;1.63;;
25111;SDS011;13092;51.996;4.458;2023-08-08T10:50:09;2.42;;;1.48;;
25111;SDS011;13092;51.996;4.458;2023-08-08T10:52:50;2.20;;;1.33;;
25111;SDS011;13092;51.996;4.458;2023-08-08T10:55:22;1.42;;;1.08;;
25111;SDS011;13092;51.996;4.458;2023-08-08T10:57:55;2.20;;;1.42;;
25111;SDS011;13092;51.996;4.458;2023-08-08T11:00:27;5.47;;;1.35;;
25111;SDS011;13092;51.996;4.458;2023-08-08T11:03:02;2.35;;;1.15;;
25111;SDS011;13092;51.996;4.458;2023-08-08T11:05:33;4.18;;;1.48;;
25111;SDS011;13092;51.996;4.458;2023-08-08T11:08:12;1.70;;;0.90;;
25111;SDS011;13092;51.996;4.458;2023-08-08T11:10:44;5.38;;;1.35;;
25111;SDS011;13092;51.996;4.458;2023-08-08T11:13:14;3.03;;;1.30;;
25111;SDS011;13092;51.996;4.458;2023-08-08T11:15:43;2.38;;;1.25;;
25111;SDS011;13092;51.996;4.458;2023-08-08T11:18:11;1.13;;;1.02;;
25111;SDS011;13092;51.996;4.458;2023-08-08T11:20:42;2.22;;;1.10;;
25111;SDS011;13092;51.996;4.458;2023-08-08T11:23:11;2.75;;;1.25;;
25111;SDS011;13092;51.996;4.458;2023-08-08T11:25:40;2.30;;;1.25;;
25111;SDS011;13092;51.996;4.458;2023-08-08T11:28:09;1.80;;;1.10;;
25111;SDS011;13092;51.996;4.458;2023-08-08T11:30:42;3.22;;;1.15;;
25111;SDS011;13092;51.996;4.458;2023-08-08T11:33:12;1.92;;;1.15;;
25111;SDS011;13092;51.996;4.458;2023-08-08T11:35:45;4.50;;;1.50;;
25111;SDS011;13092;51.996;4.458;2023-08-08T11:38:15;2.70;;;1.40;;
25111;SDS011;13092;51.996;4.458;2023-08-08T11:40:45;2.47;;;1.23;;
25111;SDS011;13092;51.996;4.458;2023-08-08T11:43:13;3.30;;;1.25;;
25111;SDS011;13092;51.996;4.458;2023-08-08T11:45:43;4.65;;;1.45;;
25111;SDS011;13092;51.996;4.458;2023-08-08T11:48:12;5.72;;;1.30;;
25111;SDS011;13092;51.996;4.458;2023-08-08T11:50:40;2.95;;;1.20;;
25111;SDS011;13092;51.996;4.458;2023-08-08T11:53:11;4.00;;;1.33;;
25111;SDS011;13092;51.996;4.458;2023-08-08T11:55:39;6.80;;;2.00;;
25111;SDS011;13092;51.996;4.458;2023-08-08T11:58:12;2.95;;;1.30;;
25111;SDS011;13092;51.996;4.458;2023-08-08T12:00:43;4.88;;;1.27;;
25111;SDS011;13092;51.996;4.458;2023-08-08T12:03:13;5.15;;;1.40;;
25111;SDS011;13092;51.996;4.458;2023-08-08T12:05:45;5.10;;;1.40;;
25111;SDS011;13092;51.996;4.458;2023-08-08T12:08:16;5.20;;;1.50;;
25111;SDS011;13092;51.996;4.458;2023-08-08T12:10:47;3.65;;;1.38;;
25111;SDS011;13092;51.996;4.458;2023-08-08T12:13:20;5.85;;;1.50;;
25111;SDS011;13092;51.996;4.458;2023-08-08T12:15:50;3.15;;;1.35;;
25111;SDS011;13092;51.996;4.458;2023-08-08T12:18:21;3.60;;;1.40;;
25111;SDS011;13092;51.996;4.458;2023-08-08T12:20:50;3.45;;;1.42;;
25111;SDS011;13092;51.996;4.458;2023-08-08T12:23:18;2.55;;;1.33;;
25111;SDS011;13092;51.996;4.458;2023-08-08T12:25:47;4.18;;;1.42;;
25111;SDS011;13092;51.996;4.458;2023-08-08T12:28:15;3.70;;;1.50;;
25111;SDS011;13092;51.996;4.458;2023-08-08T12:30:44;1.23;;;1.10;;
25111;SDS011;13092;51.996;4.458;2023-08-08T12:33:14;3.78;;;1.15;;
25111;SDS011;13092;51.996;4.458;2023-08-08T12:35:42;1.90;;;1.13;;
25111;SDS011;13092;51.996;4.458;2023-08-08T12:38:12;1.35;;;1.23;;
25111;SDS011;13092;51.996;4.458;2023-08-08T12:40:41;6.00;;;1.42;;
25111;SDS011;13092;51.996;4.458;2023-08-08T12:43:10;4.47;;;1.50;;
25111;SDS011;13092;51.996;4.458;2023-08-08T12:45:43;4.78;;;1.52;;
25111;SDS011;13092;51.996;4.458;2023-08-08T12:48:13;3.85;;;1.45;;
25111;SDS011;13092;51.996;4.458;2023-08-08T12:50:42;3.45;;;1.50;;
25111;SDS011;13092;51.996;4.458;2023-08-08T12:53:13;5.63;;;1.65;;
25111;SDS011;13092;51.996;4.458;2023-08-08T12:55:41;1.63;;;1.25;;
25111;SDS011;13092;51.996;4.458;2023-08-08T12:58:10;3.78;;;1.40;;
25111;SDS011;13092;51.996;4.458;2023-08-08T13:00:38;5.03;;;2.03;;
25111;SDS011;13092;51.996;4.458;2023-08-08T13:03:07;2.28;;;1.50;;
25111;SDS011;13092;51.996;4.458;2023-08-08T13:05:37;2.78;;;1.50;;
25111;SDS011;13092;51.996;4.458;2023-08-08T13:08:05;2.50;;;1.50;;
25111;SDS011;13092;51.996;4.458;2023-08-08T13:10:35;4.43;;;1.40;;
25111;SDS011;13092;51.996;4.458;2023-08-08T13:13:04;2.70;;;1.42;;
25111;SDS011;13092;51.996;4.458;2023-08-08T13:15:34;4.53;;;1.60;;
25111;SDS011;13092;51.996;4.458;2023-08-08T13:18:03;2.55;;;1.55;;
25111;SDS011;13092;51.996;4.458;2023-08-08T13:20:31;4.95;;;1.52;;
25111;SDS011;13092;51.996;4.458;2023-08-08T13:23:01;2.40;;;1.52;;
25111;SDS011;13092;51.996;4.458;2023-08-08T13:25:31;2.10;;;1.60;;
25111;SDS011;13092;51.996;4.458;2023-08-08T13:28:02;1.67;;;1.48;;
25111;SDS011;13092;51.996;4.458;2023-08-08T13:30:30;2.42;;;1.60;;
25111;SDS011;13092;51.996;4.458;2023-08-08T13:33:00;4.97;;;1.70;;
25111;SDS011;13092;51.996;4.458;2023-08-08T13:35:29;3.03;;;1.40;;
25111;SDS011;13092;51.996;4.458;2023-08-08T13:37:57;4.18;;;1.65;;
25111;SDS011;13092;51.996;4.458;2023-08-08T13:40:27;1.88;;;1.38;;
25111;SDS011;13092;51.996;4.458;2023-08-08T13:42:55;6.97;;;2.17;;
25111;SDS011;13092;51.996;4.458;2023-08-08T13:45:23;3.13;;;1.70;;
25111;SDS011;13092;51.996;4.458;2023-08-08T13:47:55;2.75;;;1.80;;
25111;SDS011;13092;51.996;4.458;2023-08-08T13:50:23;4.32;;;1.58;;
25111;SDS011;13092;51.996;4.458;2023-08-08T13:52:52;8.25;;;1.70;;
25111;SDS011;13092;51.996;4.458;2023-08-08T13:55:21;2.67;;;1.70;;
25111;SDS011;13092;51.996;4.458;2023-08-08T13:57:51;3.42;;;1.77;;
25111;SDS011;13092;51.996;4.458;2023-08-08T14:00:21;5.05;;;1.88;;
25111;SDS011;13092;51.996;4.458;2023-08-08T14:02:49;9.93;;;2.22;;
25111;SDS011;13092;51.996;4.458;2023-08-08T14:05:17;6.47;;;1.98;;
25111;SDS011;13092;51.996;4.458;2023-08-08T14:07:46;4.28;;;1.70;;
25111;SDS011;13092;51.996;4.458;2023-08-08T14:10:14;5.22;;;2.05;;
25111;SDS011;13092;51.996;4.458;2023-08-08T14:12:42;2.60;;;1.65;;
25111;SDS011;13092;51.996;4.458;2023-08-08T14:15:12;3.63;;;1.80;;
25111;SDS011;13092;51.996;4.458;2023-08-08T14:17:40;4.63;;;1.70;;
25111;SDS011;13092;51.996;4.458;2023-08-08T14:20:09;3.75;;;1.73;;
25111;SDS011;13092;51.996;4.458;2023-08-08T14:22:38;5.40;;;1.80;;
25111;SDS011;13092;51.996;4.458;2023-08-08T14:25:07;4.07;;;1.80;;
25111;SDS011;13092;51.996;4.458;2023-08-08T14:27:35;2.65;;;1.70;;
25111;SDS011;13092;51.996;4.458;2023-08-08T14:30:04;3.08;;;1.98;;
25111;SDS011;13092;51.996;4.458;2023-08-08T14:32:35;2.55;;;2.10;;
25111;SDS011;13092;51.996;4.458;2023-08-08T14:35:04;4.15;;;1.63;;
25111;SDS011;13092;51.996;4.458;2023-08-08T14:37:35;2.25;;;1.63;;
25111;SDS011;13092;51.996;4.458;2023-08-08T14:40:04;4.75;;;1.60;;
25111;SDS011;13092;51.996;4.458;2023-08-08T14:42:33;4.80;;;1.55;;
25111;SDS011;13092;51.996;4.458;2023-08-08T14:45:01;4.10;;;1.73;;
25111;SDS011;13092;51.996;4.458;2023-08-08T14:47:30;5.57;;;1.98;;
25111;SDS011;13092;51.996;4.458;2023-08-08T14:49:59;3.47;;;1.83;;
25111;SDS011;13092;51.996;4.458;2023-08-08T14:52:28;5.88;;;2.53;;